Time;durP1;ratioP1;P1;durP2;ratioP2;P2;SDS_P1;SDS_P2;PMS_P1;PMS_P2;Temp;Humidity;BMP_temperature;BMP_pressure;BME280_temperature;BME280_humidity;BME280_pressure;Samples;Min_cycle;Max_cycle;Signal;HPM_P1;HPM_P2
2023/08/12 00:00:13;;;;;;;10.70;8.50;;;;;;;19.04;100.00;100001.48;105892;1256;60583;-65
2023/08/12 00:02:43;;;;;;;11.80;9.20;;;;;;;19.00;100.00;99995.44;105981;1251;73030;-58
2023/08/12 00:05:11;;;;;;;11.20;9.30;;;;;;;18.96;100.00;99997.14;105783;1256;66925;-59
2023/08/12 00:07:43;;;;;;;10.70;8.30;;;;;;;18.95;100.00;99990.21;105978;1256;71907;-59
2023/08/12 00:10:11;;;;;;;13.70;9.90;;;;;;;18.93;100.00;99989.08;105493;1254;61713;-59
2023/08/12 00:12:39;;;;;;;10.40;9.30;;;;;;;18.93;100.00;99993.60;105836;1251;60153;-58
2023/08/12 00:15:08;;;;;;;14.00;9.60;;;;;;;18.93;100.00;99992.44;105903;1257;73098;-58
2023/08/12 00:17:37;;;;;;;12.70;10.10;;;;;;;18.92;100.00;99992.02;105698;1253;66907;-59
2023/08/12 00:20:06;;;;;;;10.20;8.60;;;;;;;18.91;100.00;99990.33;105843;1252;73496;-59
2023/08/12 00:22:34;;;;;;;10.20;8.50;;;;;;;18.90;100.00;99994.94;105836;1266;62852;-61
2023/08/12 00:25:02;;;;;;;11.40;9.30;;;;;;;18.90;100.00;100002.86;105987;1252;60096;-60
2023/08/12 00:27:30;;;;;;;10.60;9.50;;;;;;;18.87;100.00;99999.45;105912;1251;73093;-58
2023/08/12 00:29:58;;;;;;;13.40;9.60;;;;;;;18.87;100.00;100007.38;105755;1252;67550;-64
2023/08/12 00:32:26;;;;;;;13.70;9.40;;;;;;;18.85;100.00;100012.30;105865;1251;72672;-59
2023/08/12 00:34:54;;;;;;;13.50;9.20;;;;;;;18.81;100.00;100014.59;105842;1251;60426;-60
2023/08/12 00:37:22;;;;;;;11.80;9.00;;;;;;;18.77;100.00;100018.75;105805;1255;59528;-58
2023/08/12 00:39:50;;;;;;;13.20;8.50;;;;;;;18.74;100.00;100024.88;105670;1254;73056;-65
2023/08/12 00:42:17;;;;;;;12.20;8.90;;;;;;;18.75;100.00;100027.84;105578;1257;66746;-59
2023/08/12 00:44:45;;;;;;;13.30;9.10;;;;;;;18.73;100.00;100025.61;105706;1256;72737;-60
2023/08/12 00:47:14;;;;;;;10.30;8.90;;;;;;;18.74;100.00;100026.40;105702;1253;60509;-59
2023/08/12 00:49:43;;;;;;;10.30;9.10;;;;;;;18.74;100.00;100033.44;106279;1251;60065;-64
2023/08/12 00:52:14;;;;;;;14.40;9.40;;;;;;;18.69;100.00;100033.19;105554;1251;72983;-59
2023/08/12 00:54:42;;;;;;;15.30;9.50;;;;;;;18.66;100.00;100026.74;105791;1252;66882;-59
2023/08/12 00:57:09;;;;;;;12.10;9.00;;;;;;;18.70;100.00;100024.77;105812;1251;71430;-59
2023/08/12 00:59:37;;;;;;;12.10;8.90;;;;;;;18.69;100.00;100028.48;106087;1257;60474;-64
2023/08/12 01:02:05;;;;;;;11.00;9.30;;;;;;;18.67;100.00;100037.05;105278;1251;60621;-59
2023/08/12 01:04:34;;;;;;;16.90;9.70;;;;;;;18.61;100.00;100048.20;105973;1257;73874;-59
2023/08/12 01:07:01;;;;;;;9.90;8.80;;;;;;;18.56;100.00;100046.30;106013;1256;65648;-58
2023/08/12 01:09:30;;;;;;;10.80;8.80;;;;;;;18.54;100.00;100050.64;105816;1257;72798;-59
2023/08/12 01:12:03;;;;;;;9.80;8.00;;;;;;;18.51;100.00;100055.08;106048;1256;60425;-65
2023/08/12 01:14:45;;;;;;;13.90;9.20;;;;;;;18.46;100.00;100057.17;105820;1252;60135;-57
2023/08/12 01:25:01;;;;;;;12.80;9.90;;;;;;;18.41;100.00;100074.28;102388;1294;600324;-58
2023/08/12 01:27:30;;;;;;;10.20;8.40;;;;;;;18.37;100.00;100067.79;104949;1265;59675;-59
2023/08/12 01:29:58;;;;;;;13.20;8.70;;;;;;;18.37;100.00;100069.85;104940;1266;60237;-58
2023/08/12 01:32:32;;;;;;;9.80;8.80;;;;;;;18.40;100.00;100070.30;104960;1269;72158;-58
2023/08/12 01:35:21;;;;;;;12.90;10.10;;;;;;;18.37;100.00;100066.83;104795;1266;66722;-61
2023/08/12 01:37:50;;;;;;;11.80;9.90;;;;;;;18.31;100.00;100069.44;104575;1270;228510;-58
2023/08/12 01:40:19;;;;;;;11.40;9.70;;;;;;;18.28;100.00;100070.27;104841;1263;62200;-58
2023/08/12 01:42:47;;;;;;;13.70;11.50;;;;;;;18.30;100.00;100073.59;104986;1263;60093;-60
2023/08/12 01:45:15;;;;;;;13.50;10.80;;;;;;;18.31;100.00;100076.50;105049;1263;72207;-60
2023/08/12 01:47:43;;;;;;;12.90;10.70;;;;;;;18.37;100.00;100069.53;104928;1263;65832;-59
2023/08/12 01:50:11;;;;;;;10.70;9.60;;;;;;;18.44;100.00;100075.09;104976;1263;72704;-58
2023/08/12 01:52:39;;;;;;;10.70;9.70;;;;;;;18.41;100.00;100079.67;105095;1256;61756;-59
2023/08/12 01:55:08;;;;;;;12.60;11.10;;;;;;;18.36;100.00;100080.23;105455;1257;59556;-64
2023/08/12 01:57:35;;;;;;;12.20;10.90;;;;;;;18.33;100.00;100081.16;105204;1256;73515;-58
2023/08/12 02:00:06;;;;;;;13.60;11.60;;;;;;;18.30;100.00;100077.82;105435;1261;66820;-58
2023/08/12 02:02:46;;;;;;;;;;;;;;;18.30;100.00;100078.80;105047;1256;72742;-58
2023/08/12 02:05:14;;;;;;;13.20;11.90;;;;;;;18.37;100.00;100076.44;105193;1260;61101;-58
2023/08/12 02:07:42;;;;;;;12.10;10.50;;;;;;;18.43;100.00;100066.46;105372;1257;60037;-57
2023/08/12 02:10:10;;;;;;;12.90;11.60;;;;;;;18.46;100.00;100065.09;105485;1257;73042;-63
2023/08/12 02:12:38;;;;;;;12.60;11.00;;;;;;;18.50;100.00;100076.86;105381;1260;65978;-59
2023/08/12 02:15:06;;;;;;;12.30;11.10;;;;;;;18.46;100.00;100077.39;105348;1257;72760;-60
2023/08/12 02:17:34;;;;;;;13.00;11.00;;;;;;;18.42;100.00;100075.64;105394;1257;61763;-58
2023/08/12 02:20:04;;;;;;;11.50;10.30;;;;;;;18.41;100.00;100076.70;105666;1260;59510;-59
2023/08/12 02:22:31;;;;;;;12.40;10.70;;;;;;;18.41;100.00;100072.33;105421;1256;71808;-59
2023/08/12 02:24:59;;;;;;;12.20;10.20;;;;;;;18.42;100.00;100073.04;105562;1256;66812;-63
2023/08/12 02:27:27;;;;;;;12.30;10.40;;;;;;;18.42;100.00;100077.86;105295;1256;73127;-58
2023/08/12 02:29:55;;;;;;;12.40;10.40;;;;;;;18.44;100.00;100079.73;105358;1257;62192;-64
2023/08/12 02:32:23;;;;;;;12.00;10.90;;;;;;;18.47;100.00;100086.48;105202;1260;60158;-58
2023/08/12 02:34:51;;;;;;;15.90;11.50;;;;;;;18.53;100.00;100085.41;105341;1257;73063;-58
2023/08/12 02:37:19;;;;;;;13.40;12.10;;;;;;;18.64;100.00;100090.55;105539;1260;66938;-59
2023/08/12 02:39:47;;;;;;;13.80;12.50;;;;;;;18.73;100.00;100101.09;105171;1257;71388;-59
2023/08/12 02:42:15;;;;;;;15.10;13.30;;;;;;;18.82;100.00;100103.11;105514;1253;62512;-58
2023/08/12 02:44:43;;;;;;;16.00;14.00;;;;;;;18.91;100.00;100107.80;105640;1253;60106;-58
2023/08/12 02:47:10;;;;;;;14.50;13.10;;;;;;;18.98;100.00;100110.23;105571;1257;73021;-63
2023/08/12 02:49:38;;;;;;;17.20;15.70;;;;;;;19.07;100.00;100118.16;105417;1252;67105;-58
2023/08/12 02:52:06;;;;;;;15.70;14.10;;;;;;;19.17;100.00;100118.59;105723;1257;72698;-62
2023/08/12 02:54:34;;;;;;;15.30;13.90;;;;;;;19.30;100.00;100125.45;105611;1253;61646;-59
2023/08/12 02:57:02;;;;;;;16.00;14.40;;;;;;;19.37;100.00;100125.99;105825;1254;60050;-59
2023/08/12 02:59:30;;;;;;;15.90;14.40;;;;;;;19.46;100.00;100128.48;105682;1251;71858;-58
2023/08/12 03:01:59;;;;;;;16.40;14.70;;;;;;;19.52;100.00;100126.08;105870;1253;66990;-59
2023/08/12 03:04:27;;;;;;;15.90;14.40;;;;;;;19.58;100.00;100120.30;105998;1256;72007;-58
2023/08/12 03:06:55;;;;;;;15.20;13.70;;;;;;;19.66;100.00;100126.91;105973;1252;60465;-58
2023/08/12 03:09:23;;;;;;;15.80;14.20;;;;;;;19.73;100.00;100131.03;105680;1253;60055;-64
2023/08/12 03:11:50;;;;;;;15.40;13.90;;;;;;;19.79;100.00;100139.45;106037;1253;71828;-62
2023/08/12 03:14:18;;;;;;;17.70;15.60;;;;;;;19.85;100.00;100144.45;105801;1258;65631;-59
2023/08/12 03:16:46;;;;;;;17.20;15.50;;;;;;;19.92;100.00;100150.02;105704;1253;72689;-58
2023/08/12 03:19:14;;;;;;;17.20;15.50;;;;;;;19.97;100.00;100157.44;105761;1253;61711;-57
2023/08/12 03:21:42;;;;;;;16.90;15.40;;;;;;;20.00;100.00;100164.46;105808;1253;61472;-57
2023/08/12 03:24:11;;;;;;;16.40;14.80;;;;;;;20.05;100.00;100170.81;105452;1251;71806;-61
2023/08/12 03:26:39;;;;;;;18.80;16.80;;;;;;;20.09;100.00;100172.23;105759;1251;67018;-58
2023/08/12 03:29:07;;;;;;;18.00;16.30;;;;;;;20.08;100.00;100173.39;106012;1253;72659;-59
2023/08/12 03:31:35;;;;;;;21.10;17.50;;;;;;;20.09;100.00;100177.42;105867;1256;60568;-60
2023/08/12 03:34:04;;;;;;;18.40;16.30;;;;;;;20.10;100.00;100182.98;105437;1252;60454;-59
2023/08/12 03:36:33;;;;;;;17.70;15.80;;;;;;;20.11;100.00;100184.89;105684;1251;71880;-58
2023/08/12 03:39:00;;;;;;;17.30;15.60;;;;;;;20.11;100.00;100183.95;105859;1253;67533;-59
2023/08/12 03:41:30;;;;;;;18.40;16.60;;;;;;;20.12;100.00;100195.04;105854;1253;71490;-59
2023/08/12 03:44:00;;;;;;;18.60;16.70;;;;;;;20.12;100.00;100197.70;105812;1259;60456;-63
2023/08/12 03:46:28;;;;;;;19.10;17.10;;;;;;;20.12;100.00;100208.36;105902;1254;59621;-58
2023/08/12 03:48:56;;;;;;;20.20;17.90;;;;;;;20.11;100.00;100208.51;105802;1256;73082;-59
2023/08/12 03:51:24;;;;;;;20.60;17.50;;;;;;;20.10;100.00;100212.99;105764;1257;66866;-58
2023/08/12 03:53:52;;;;;;;19.70;17.60;;;;;;;20.12;100.00;100217.16;105979;1255;71446;-63
2023/08/12 03:56:19;;;;;;;20.30;17.60;;;;;;;20.14;100.00;100214.58;105712;1253;61443;-58
2023/08/12 03:58:47;;;;;;;21.00;17.30;;;;;;;20.14;100.00;100215.22;105803;1253;60040;-59
2023/08/12 04:01:15;;;;;;;20.70;18.60;;;;;;;20.17;100.00;100212.40;105795;1251;71789;-58
2023/08/12 04:03:43;;;;;;;21.60;19.40;;;;;;;20.22;100.00;100215.30;105773;1252;65214;-58
2023/08/12 04:06:11;;;;;;;20.90;18.70;;;;;;;20.26;100.00;100215.88;105989;1258;71458;-64
2023/08/12 04:08:38;;;;;;;22.60;20.20;;;;;;;20.27;100.00;100218.28;105518;1252;61735;-60
2023/08/12 04:11:06;;;;;;;25.70;23.00;;;;;;;20.28;100.00;100223.05;105630;1255;60237;-60
2023/08/12 04:13:34;;;;;;;25.40;22.80;;;;;;;20.31;100.00;100224.15;105730;1250;73117;-60
2023/08/12 04:16:02;;;;;;;27.20;24.20;;;;;;;20.34;100.00;100224.27;105829;1256;65770;-59
2023/08/12 04:18:30;;;;;;;26.20;23.40;;;;;;;20.38;100.00;100228.92;105796;1256;72648;-59
2023/08/12 04:20:59;;;;;;;28.80;25.00;;;;;;;20.41;100.00;100232.78;105715;1252;61680;-58
2023/08/12 04:23:27;;;;;;;26.60;23.40;;;;;;;20.40;100.00;100235.99;106154;1253;60049;-58
2023/08/12 04:25:55;;;;;;;21.30;19.10;;;;;;;20.38;100.00;100238.83;105820;1251;73129;-62
2023/08/12 04:28:25;;;;;;;19.00;17.00;;;;;;;20.34;100.00;100240.47;105828;1256;67535;-64
2023/08/12 04:30:53;;;;;;;15.40;13.70;;;;;;;20.31;100.00;100244.95;105735;1256;72663;-59
2023/08/12 04:33:22;;;;;;;14.00;12.60;;;;;;;20.23;100.00;100246.98;105726;1253;61702;-58
2023/08/12 04:35:50;;;;;;;14.50;12.40;;;;;;;20.16;100.00;100243.83;105883;1256;59626;-65
2023/08/12 04:38:18;;;;;;;14.10;12.60;;;;;;;20.13;100.00;100247.55;105661;1258;72501;-60
2023/08/12 04:40:47;;;;;;;18.30;14.30;;;;;;;20.10;100.00;100251.31;105861;1253;66903;-60
2023/08/12 04:43:16;;;;;;;17.30;15.40;;;;;;;20.05;100.00;100247.76;105850;1253;72623;-59
2023/08/12 04:45:47;;;;;;;17.70;14.70;;;;;;;19.97;100.00;100251.10;105774;1259;60417;-64
2023/08/12 04:48:15;;;;;;;20.10;15.20;;;;;;;19.86;100.00;100249.38;105755;1253;60053;-61
2023/08/12 04:50:44;;;;;;;15.70;14.00;;;;;;;19.83;100.00;100254.35;105801;1256;73086;-59
2023/08/12 04:53:11;;;;;;;16.00;14.30;;;;;;;19.79;100.00;100256.52;105715;1256;66194;-59
2023/08/12 04:55:39;;;;;;;14.30;12.80;;;;;;;19.80;100.00;100255.58;105816;1257;72678;-64
2023/08/12 04:58:08;;;;;;;15.60;14.00;;;;;;;19.83;100.00;100256.98;105520;1259;61761;-66
2023/08/12 05:00:36;;;;;;;15.70;14.10;;;;;;;19.89;100.00;100262.48;105709;1251;59696;-59
2023/08/12 05:03:04;;;;;;;15.50;13.90;;;;;;;20.02;100.00;100269.30;105722;1251;71930;-60
2023/08/12 05:05:32;;;;;;;15.30;13.70;;;;;;;20.29;100.00;100278.11;105771;1257;66902;-59
2023/08/12 05:08:00;;;;;;;16.30;14.70;;;;;;;21.09;100.00;100279.98;105925;1253;71402;-65
2023/08/12 05:10:28;;;;;;;15.00;13.60;;;;;;;22.21;100.00;100285.41;105539;1253;61724;-60
2023/08/12 05:12:57;;;;;;;15.40;14.10;;;;;;;23.57;100.00;100301.63;105540;1256;59611;-60
2023/08/12 05:15:25;;;;;;;13.60;12.40;;;;;;;24.91;100.00;100314.33;105815;1252;73049;-61
2023/08/12 05:17:53;;;;;;;12.80;11.70;;;;;;;25.84;100.00;100322.89;106050;1253;65070;-65
2023/08/12 05:20:22;;;;;;;10.00;9.10;;;;;;;26.08;100.00;100323.13;105654;1252;72771;-61
2023/08/12 05:22:49;;;;;;;10.30;9.40;;;;;;;25.92;100.00;100319.56;105830;1259;60501;-60
2023/08/12 05:25:17;;;;;;;11.20;10.10;;;;;;;25.76;100.00;100318.27;105898;1253;59733;-60
2023/08/12 05:27:45;;;;;;;11.50;10.50;;;;;;;25.49;100.00;100321.66;105820;1256;72869;-62
2023/08/12 05:30:13;;;;;;;11.30;10.30;;;;;;;25.12;100.00;100321.25;105943;1253;67441;-61
2023/08/12 05:32:41;;;;;;;10.50;9.50;;;;;;;24.72;100.00;100317.80;105755;1254;73155;-59
2023/08/12 05:35:09;;;;;;;9.40;8.60;;;;;;;24.27;100.00;100307.34;105641;1256;61728;-60
2023/08/12 05:37:37;;;;;;;9.80;8.90;;;;;;;23.90;100.00;100313.10;105821;1253;60310;-59
2023/08/12 05:40:08;;;;;;;9.30;8.50;;;;;;;23.62;100.00;100318.09;105787;1252;73876;-62
2023/08/12 05:42:36;;;;;;;;;;;;;;;23.37;100.00;100322.83;105591;1252;67128;-62
2023/08/12 05:45:04;;;;;;;10.20;9.30;;;;;;;23.19;100.00;100317.39;105903;1252;72668;-62
2023/08/12 05:47:35;;;;;;;10.30;9.40;;;;;;;23.00;100.00;100320.55;105876;1256;61708;-60
2023/08/12 05:50:03;;;;;;;10.80;9.90;;;;;;;22.78;100.00;100328.73;105877;1251;60999;-60
2023/08/12 05:52:32;;;;;;;10.10;9.20;;;;;;;22.57;100.00;100336.20;105774;1253;72556;-61
2023/08/12 05:55:00;;;;;;;9.80;8.90;;;;;;;22.44;100.00;100335.36;106005;1256;65635;-59
2023/08/12 05:57:28;;;;;;;10.10;9.10;;;;;;;22.32;100.00;100337.16;105876;1253;72941;-59
2023/08/12 06:07:43;;;;;;;11.00;10.00;;;;;;;22.27;100.00;100377.52;102322;1292;600659;-66
2023/08/12 06:10:10;;;;;;;11.20;10.10;;;;;;;22.27;100.00;100373.73;104547;1269;60457;-59
2023/08/12 06:12:38;;;;;;;11.30;10.10;;;;;;;22.26;100.00;100371.60;104670;1265;60063;-61
2023/08/12 06:15:06;;;;;;;14.20;12.80;;;;;;;22.22;100.00;100374.55;105352;1258;72323;-60
2023/08/12 06:17:34;;;;;;;13.00;11.80;;;;;;;22.17;100.00;100371.45;105339;1262;66924;-67
2023/08/12 06:20:02;;;;;;;14.30;12.80;;;;;;;22.18;100.00;100374.59;104921;1260;72077;-61
2023/08/12 06:22:30;;;;;;;11.80;10.70;;;;;;;22.16;100.00;100374.20;104526;1259;1278370;-59
2023/08/12 06:24:58;;;;;;;13.30;12.00;;;;;;;22.09;100.00;100374.39;105588;1259;60163;-61
2023/08/12 06:27:26;;;;;;;15.40;14.00;;;;;;;22.02;100.00;100377.33;105407;1259;72377;-60
2023/08/12 06:29:54;;;;;;;17.70;16.10;;;;;;;21.86;100.00;100383.80;105632;1259;66930;-61
2023/08/12 06:32:21;;;;;;;16.90;15.40;;;;;;;21.76;100.00;100382.71;105302;1259;72367;-60
2023/08/12 06:34:49;;;;;;;16.90;15.30;;;;;;;21.70;100.00;100384.16;105493;1259;61742;-63
2023/08/12 06:37:17;;;;;;;17.90;16.20;;;;;;;21.71;100.00;100389.86;105428;1259;59782;-60
2023/08/12 06:39:45;;;;;;;17.60;15.90;;;;;;;21.73;100.00;100392.09;105506;1254;72506;-67
2023/08/12 06:42:13;;;;;;;16.90;15.20;;;;;;;21.71;100.00;100397.13;105453;1259;67874;-60
2023/08/12 06:44:41;;;;;;;17.80;16.10;;;;;;;21.72;100.00;100394.77;105709;1259;71389;-61
2023/08/12 06:47:09;;;;;;;17.10;15.40;;;;;;;21.76;100.00;100393.54;105272;1253;61713;-60
2023/08/12 06:49:37;;;;;;;16.90;15.30;;;;;;;21.91;100.00;100396.69;105591;1259;59702;-62
2023/08/12 06:52:05;;;;;;;15.80;14.20;;;;;;;22.05;100.00;100402.14;105576;1259;73603;-61
2023/08/12 06:54:32;;;;;;;16.90;15.30;;;;;;;22.18;100.00;100406.66;105718;1259;66974;-61
2023/08/12 06:57:00;;;;;;;16.50;14.90;;;;;;;22.27;100.00;100406.61;105269;1259;72020;-60
2023/08/12 06:59:28;;;;;;;17.40;15.80;;;;;;;22.32;100.00;100406.33;105524;1258;61709;-60
2023/08/12 07:01:56;;;;;;;17.30;15.70;;;;;;;22.35;100.00;100405.60;105559;1255;60562;-65
2023/08/12 07:04:24;;;;;;;17.60;15.90;;;;;;;22.38;100.00;100403.43;105703;1259;73081;-61
2023/08/12 07:06:53;;;;;;;18.40;16.70;;;;;;;22.43;100.00;100403.56;106007;1257;66892;-61
2023/08/12 07:09:22;;;;;;;17.50;15.90;;;;;;;22.50;100.00;100403.60;105543;1259;71519;-61
2023/08/12 07:11:50;;;;;;;19.30;17.50;;;;;;;22.60;100.00;100411.72;105831;1258;60449;-66
2023/08/12 07:14:17;;;;;;;19.80;17.90;;;;;;;22.74;100.00;100417.16;106178;1254;59640;-60
2023/08/12 07:16:45;;;;;;;19.30;17.60;;;;;;;22.86;100.00;100417.79;105806;1257;73076;-64
2023/08/12 07:27:02;;;;;;;15.60;14.20;;;;;;;23.59;100.00;100426.65;102417;1294;600259;-61
2023/08/12 07:29:33;;;;;;;13.90;12.70;;;;;;;23.64;100.00;100412.02;104746;1270;61704;-62
2023/08/12 07:32:04;;;;;;;15.10;13.80;;;;;;;23.73;100.00;100411.67;104700;1265;60978;-68
2023/08/12 07:34:32;;;;;;;14.30;13.10;;;;;;;23.87;100.00;100414.21;104753;1266;72139;-61
2023/08/12 07:37:00;;;;;;;13.80;12.60;;;;;;;24.03;100.00;100418.09;104811;1266;66869;-61
2023/08/12 07:39:27;;;;;;;13.80;12.60;;;;;;;24.20;100.00;100411.89;104828;1267;196452;-67
2023/08/12 07:41:56;;;;;;;13.60;12.20;;;;;;;24.37;100.00;100409.89;104932;1266;60459;-62
2023/08/12 07:44:24;;;;;;;13.50;12.20;;;;;;;24.56;100.00;100400.77;105083;1263;60092;-62
2023/08/12 07:46:51;;;;;;;11.90;10.90;;;;;;;24.78;100.00;100399.09;104973;1264;72721;-61
2023/08/12 07:49:19;;;;;;;9.60;8.70;;;;;;;24.97;100.00;100394.67;104842;1264;65555;-61
2023/08/12 07:51:47;;;;;;;9.10;8.30;;;;;;;25.01;100.00;100386.16;104628;1263;72734;-62
2023/08/12 07:54:15;;;;;;;9.90;8.10;;;;;;;24.98;100.00;100376.38;105314;1264;60444;-62
2023/08/12 07:56:43;;;;;;;9.10;8.30;;;;;;;24.98;100.00;100372.91;105162;1263;59786;-63
2023/08/12 07:59:11;;;;;;;8.60;7.80;;;;;;;25.00;100.00;100369.54;104840;1268;73098;-60
2023/08/12 08:01:38;;;;;;;9.60;8.70;;;;;;;25.04;100.00;100368.77;108481;1262;66907;-67
2023/08/12 08:04:06;;;;;;;9.40;8.60;;;;;;;25.17;100.00;100362.36;108529;1261;72746;-62
2023/08/12 08:06:34;;;;;;;9.40;8.60;;;;;;;25.41;100.00;100363.51;108505;1262;61760;-62
2023/08/12 08:09:03;;;;;;;9.30;8.50;;;;;;;25.77;100.00;100362.54;108566;1261;58970;-63
2023/08/12 08:11:31;;;;;;;9.50;8.60;;;;;;;26.21;100.00;100358.98;108544;1263;73216;-68
2023/08/12 08:13:59;;;;;;;9.30;8.20;;;;;;;26.58;100.00;100357.52;108583;1262;67428;-62
2023/08/12 08:16:26;;;;;;;9.20;8.40;;;;;;;26.72;100.00;100345.93;108551;1262;72781;-62
2023/08/12 08:18:55;;;;;;;7.90;7.20;;;;;;;26.68;100.00;100342.72;108433;1262;62268;-67
2023/08/12 08:21:25;;;;;;;7.40;6.70;;;;;;;26.66;100.00;100340.55;108481;1263;58744;-63
2023/08/12 08:23:53;;;;;;;7.60;6.80;;;;;;;26.68;100.00;100341.94;108521;1263;71148;-61
2023/08/12 08:26:20;;;;;;;8.50;7.80;;;;;;;26.68;100.00;100343.16;108550;1262;67023;-61
2023/08/12 08:28:48;;;;;;;7.50;6.80;;;;;;;26.73;100.00;100344.63;108509;1262;71183;-66
2023/08/12 08:31:15;;;;;;;7.80;7.20;;;;;;;26.79;100.00;100340.11;108553;1262;61740;-64
2023/08/12 08:33:43;;;;;;;7.40;6.70;;;;;;;26.87;100.00;100335.19;108527;1261;59762;-62
2023/08/12 08:36:11;;;;;;;6.90;6.30;;;;;;;27.07;100.00;100336.98;108603;1262;73141;-62
2023/08/12 08:38:39;;;;;;;7.20;6.50;;;;;;;27.37;100.00;100339.27;108523;1263;67410;-63
2023/08/12 08:41:07;;;;;;;7.10;6.50;;;;;;;27.67;100.00;100335.01;108504;1263;71164;-62
2023/08/12 08:43:35;;;;;;;7.90;7.20;;;;;;;27.95;100.00;100327.17;108324;1263;60947;-68
2023/08/12 08:46:03;;;;;;;7.80;7.00;;;;;;;28.35;100.00;100323.56;108457;1263;58922;-62
2023/08/12 08:48:30;;;;;;;7.00;6.30;;;;;;;28.87;100.00;100325.16;108567;1263;73150;-62
2023/08/12 08:50:58;;;;;;;6.70;6.10;;;;;;;29.35;100.00;100320.94;108556;1263;66883;-62
2023/08/12 08:53:25;;;;;;;6.60;5.90;;;;;;;29.69;100.00;100317.08;108503;1263;71202;-63
2023/08/12 08:55:53;;;;;;;5.60;5.10;;;;;;;29.95;100.00;100302.46;108841;1257;62244;-61
2023/08/12 08:58:27;;;;;;;6.40;5.80;;;;;;;30.28;100.00;100300.23;108919;1256;60268;-62
2023/08/12 09:00:55;;;;;;;6.00;5.50;;;;;;;30.74;100.00;100297.31;108906;1256;62848;-63
2023/08/12 09:03:23;;;;;;;6.30;5.70;;;;;;;31.22;100.00;100298.78;108879;1256;58318;-68
2023/08/12 09:05:51;;;;;;;6.00;5.50;;;;;;;31.68;100.00;100293.45;109096;1253;63848;-62
2023/08/12 09:08:19;;;;;;;6.10;5.60;;;;;;;31.90;100.00;100283.94;109067;1253;58011;-63
2023/08/12 09:10:46;;;;;;;5.50;5.00;;;;;;;31.79;100.00;100277.09;109063;1253;57497;-63
2023/08/12 09:13:15;;;;;;;6.10;5.60;;;;;;;31.47;100.00;100273.61;109167;1253;71811;-63
2023/08/12 09:15:42;;;;;;;6.50;5.80;;;;;;;31.13;100.00;100281.39;109002;1254;58354;-63
2023/08/12 09:18:10;;;;;;;6.70;6.10;;;;;;;30.81;100.00;100284.39;109144;1253;72897;-62
2023/08/12 09:20:37;;;;;;;6.80;6.20;;;;;;;30.66;100.00;100284.95;109317;1251;60306;-62
2023/08/12 09:23:08;;;;;;;6.50;5.90;;;;;;;30.60;100.00;100285.67;109418;1251;57832;-63
2023/08/12 09:25:42;;;;;;;6.80;6.10;;;;;;;30.58;100.00;100286.02;109229;1251;71990;-66
2023/08/12 09:28:10;;;;;;;5.40;4.90;;;;;;;30.67;100.00;100291.85;109262;1251;65732;-62
2023/08/12 09:30:38;;;;;;;6.30;5.70;;;;;;;31.01;100.00;100293.12;109281;1253;73117;-65
2023/08/12 09:33:07;;;;;;;5.00;4.50;;;;;;;31.53;100.00;100294.07;109268;1251;57391;-64
2023/08/12 09:35:39;;;;;;;5.80;5.30;;;;;;;32.12;100.00;100273.83;109206;1251;57719;-64
2023/08/12 09:38:11;;;;;;;6.20;5.60;;;;;;;32.57;100.00;100259.50;109335;1251;63813;-64
2023/08/12 09:40:38;;;;;;;6.30;5.80;;;;;;;32.87;100.00;100254.56;109310;1250;57823;-62
2023/08/12 09:43:06;;;;;;;6.50;5.90;;;;;;;33.16;100.00;100249.23;109274;1251;62564;-64
2023/08/12 09:45:34;;;;;;;6.70;6.20;;;;;;;33.20;100.00;100244.35;109261;1253;57848;-68
2023/08/12 09:48:02;;;;;;;6.30;5.80;;;;;;;32.96;100.00;100243.69;109219;1251;57344;-63
2023/08/12 09:50:30;;;;;;;6.40;5.80;;;;;;;32.67;100.00;100243.84;109312;1251;62826;-64
2023/08/12 09:52:58;;;;;;;6.30;5.80;;;;;;;32.65;100.00;100245.30;109281;1251;57420;-65
2023/08/12 09:55:25;;;;;;;6.40;5.80;;;;;;;32.75;100.00;100242.80;109284;1251;63842;-69
2023/08/12 09:57:54;;;;;;;6.60;5.90;;;;;;;32.86;100.00;100239.70;109225;1251;58862;-66
2023/08/12 10:00:23;;;;;;;5.60;5.10;;;;;;;32.81;100.00;100239.63;109162;1255;57306;-64
2023/08/12 10:02:52;;;;;;;6.30;5.80;;;;;;;32.66;100.00;100237.63;109267;1251;62821;-64
2023/08/12 10:05:23;;;;;;;5.60;5.10;;;;;;;32.56;100.00;100243.03;109274;1251;57550;-65
2023/08/12 10:07:51;;;;;;;6.80;6.20;;;;;;;32.43;100.00;100244.66;109224;1251;62495;-68
2023/08/12 10:10:19;;;;;;;6.90;5.50;;;;;;;32.32;100.00;100241.30;109241;1251;57890;-65
2023/08/12 10:12:46;;;;;;;5.90;5.40;;;;;;;32.25;100.00;100243.07;109236;1251;57305;-64
2023/08/12 10:15:14;;;;;;;6.10;5.60;;;;;;;32.22;100.00;100241.64;109329;1251;64148;-65
2023/08/12 10:17:41;;;;;;;5.70;5.20;;;;;;;32.17;100.00;100241.77;109271;1251;57632;-67
2023/08/12 10:20:18;;;;;;;6.20;5.60;;;;;;;32.15;100.00;100241.30;109313;1252;62427;-67
2023/08/12 10:22:45;;;;;;;5.70;5.20;;;;;;;32.31;100.00;100241.91;109351;1251;57959;-64
2023/08/12 10:25:13;;;;;;;5.80;5.30;;;;;;;32.64;100.00;100248.80;109154;1252;57522;-64
2023/08/12 10:27:41;;;;;;;5.60;5.10;;;;;;;32.86;100.00;100248.11;109206;1252;62893;-67
2023/08/12 10:30:09;;;;;;;6.90;6.20;;;;;;;32.88;100.00;100246.19;109272;1252;58193;-67
2023/08/12 10:32:37;;;;;;;6.10;5.60;;;;;;;32.56;100.00;100245.29;109330;1252;63775;-64
2023/08/12 10:35:05;;;;;;;6.40;5.80;;;;;;;32.30;100.00;100248.96;109193;1253;57834;-64
2023/08/12 10:37:33;;;;;;;6.50;5.90;;;;;;;32.10;100.00;100249.15;109318;1251;58001;-67
2023/08/12 10:40:08;;;;;;;5.80;5.30;;;;;;;31.84;100.00;100251.34;109232;1253;64721;-66
2023/08/12 10:42:48;;;;;;;6.50;5.90;;;;;;;31.52;100.00;100255.30;109330;1251;57456;-62
2023/08/12 10:45:17;;;;;;;6.70;6.00;;;;;;;31.13;100.00;100257.52;109223;1252;66067;-65
2023/08/12 10:48:15;;;;;;;6.80;6.20;;;;;;;30.76;100.00;100262.42;109225;1254;57981;-66
2023/08/12 10:50:48;;;;;;;6.70;6.10;;;;;;;30.32;100.00;100264.67;109325;1252;57358;-68
2023/08/12 10:53:29;;;;;;;7.60;6.00;;;;;;;29.97;100.00;100260.80;109255;1251;73148;-66
2023/08/12 10:55:58;;;;;;;6.90;6.30;;;;;;;29.68;100.00;100263.36;109295;1252;67049;-63
2023/08/12 10:58:27;;;;;;;7.60;6.90;;;;;;;29.32;100.00;100265.73;109244;1253;72678;-65
2023/08/12 11:00:55;;;;;;;7.60;6.80;;;;;;;29.18;100.00;100268.95;109251;1252;58828;-65
2023/08/12 11:03:23;;;;;;;7.70;6.90;;;;;;;29.40;100.00;100262.27;109209;1252;58771;-64
2023/08/12 11:05:55;;;;;;;7.20;6.60;;;;;;;29.78;100.00;100263.05;109294;1252;73171;-63
2023/08/12 11:08:26;;;;;;;8.40;6.50;;;;;;;30.15;100.00;100262.93;109171;1253;57517;-66
2023/08/12 11:10:56;;;;;;;6.60;6.00;;;;;;;30.48;100.00;100260.09;109294;1252;63797;-63
2023/08/12 11:13:27;;;;;;;6.20;5.60;;;;;;;30.74;100.00;100254.85;109294;1252;57678;-64
2023/08/12 11:16:05;;;;;;;;;;;;;;;30.84;100.00;100256.23;109245;1252;57718;-63
2023/08/12 11:18:32;;;;;;;6.70;6.10;;;;;;;30.84;100.00;100262.77;109242;1252;73656;-64
2023/08/12 11:21:00;;;;;;;5.00;4.40;;;;;;;30.87;100.00;100261.77;109163;1252;58445;-66
2023/08/12 11:23:27;;;;;;;5.10;4.60;;;;;;;30.88;100.00;100262.27;109261;1252;63871;-63
2023/08/12 11:25:55;;;;;;;5.10;4.60;;;;;;;30.85;100.00;100259.83;109255;1251;57924;-63
2023/08/12 11:28:23;;;;;;;4.60;3.90;;;;;;;30.89;100.00;100259.91;109230;1252;57434;-63
2023/08/12 11:30:51;;;;;;;4.60;4.20;;;;;;;31.02;100.00;100262.45;109056;1252;73133;-63